createdAt,value
2022-12-03T00:02:21.707Z,9.82
2022-12-03T00:04:48.625Z,8.68
2022-12-03T00:07:15.421Z,10.30
2022-12-03T00:09:42.855Z,8.80
2022-12-03T00:12:09.650Z,9.95
2022-12-03T00:14:41.246Z,8.85
2022-12-03T00:17:11.075Z,8.85
2022-12-03T00:19:37.781Z,9.63
2022-12-03T00:22:04.516Z,10.45
2022-12-03T00:24:31.259Z,11.45
2022-12-03T00:26:58.008Z,10.77
2022-12-03T00:29:24.748Z,8.88
2022-12-03T00:31:51.477Z,9.75
2022-12-03T00:34:18.324Z,10.02
2022-12-03T00:36:45.048Z,11.10
2022-12-03T00:39:11.773Z,11.90
2022-12-03T00:41:38.493Z,9.25
2022-12-03T00:44:05.478Z,10.45
2022-12-03T00:46:32.269Z,9.68
2022-12-03T00:48:59.128Z,9.63
2022-12-03T00:51:25.837Z,10.38
2022-12-03T00:53:52.581Z,10.90
2022-12-03T00:56:19.370Z,10.07
2022-12-03T00:58:46.659Z,9.27
2022-12-03T01:01:13.423Z,10.88
2022-12-03T01:03:40.289Z,10.55
2022-12-03T01:06:07.029Z,11.43
2022-12-03T01:08:33.748Z,10.05
2022-12-03T01:11:00.502Z,9.30
2022-12-03T01:13:27.453Z,11.57
2022-12-03T01:15:54.263Z,12.95
2022-12-03T01:18:21.019Z,10.60
2022-12-03T01:20:47.881Z,9.13
2022-12-03T01:23:14.596Z,11.68
2022-12-03T01:25:41.378Z,10.32
2022-12-03T01:28:08.141Z,9.48
2022-12-03T01:30:55.029Z,8.60
2022-12-03T01:33:21.798Z,10.60
2022-12-03T01:35:48.617Z,9.57
2022-12-03T01:38:15.349Z,9.15
2022-12-03T01:40:42.219Z,10.25
2022-12-03T01:43:08.996Z,10.68
2022-12-03T01:45:35.837Z,9.52
2022-12-03T01:48:02.591Z,10.65
2022-12-03T01:50:33.542Z,9.13
2022-12-03T01:53:03.263Z,10.07
2022-12-03T01:55:30.307Z,9.27
2022-12-03T01:58:00.867Z,8.60
2022-12-03T02:00:28.997Z,9.10
2022-12-03T02:03:00.105Z,12.68
2022-12-03T02:05:32.048Z,11.05
2022-12-03T02:10:32.934Z,10.55
2022-12-03T02:13:05.345Z,9.80
2022-12-03T02:15:32.478Z,9.88
2022-12-03T02:17:59.828Z,9.82
2022-12-03T02:20:26.693Z,10.02
2022-12-03T02:23:14.444Z,13.25
2022-12-03T02:25:41.232Z,9.85
2022-12-03T02:28:09.610Z,9.00
2022-12-03T02:30:37.111Z,9.82
2022-12-03T02:33:04.697Z,8.73
2022-12-03T02:35:35.269Z,10.00
2022-12-03T02:38:20.267Z,6.68
2022-12-03T02:40:50.282Z,7.57
2022-12-03T02:43:18.492Z,6.93
2022-12-03T02:45:49.624Z,7.07
2022-12-03T02:48:18.594Z,9.30
2022-12-03T02:50:52.690Z,10.32
2022-12-03T02:53:23.451Z,8.05
2022-12-03T02:55:51.609Z,9.13
2022-12-03T02:58:19.135Z,10.10
2022-12-03T03:00:46.739Z,8.80
2022-12-03T03:03:14.197Z,7.15
2022-12-03T03:05:41.684Z,8.32
2022-12-03T03:08:09.756Z,7.20
2022-12-03T03:10:39.780Z,8.07
2022-12-03T03:13:12.615Z,9.50
2022-12-03T03:18:09.286Z,9.23
2022-12-03T03:20:37.169Z,8.13
2022-12-03T03:23:12.720Z,8.52
2022-12-03T03:25:43.964Z,8.68
2022-12-03T03:28:11.444Z,6.93
2022-12-03T03:30:39.720Z,9.30
2022-12-03T03:33:07.178Z,9.30
2022-12-03T03:35:34.180Z,9.13
2022-12-03T03:38:01.007Z,7.38
2022-12-03T03:40:28.612Z,8.13
2022-12-03T03:42:56.890Z,10.63
2022-12-03T03:45:28.873Z,9.80
2022-12-03T03:47:58.415Z,8.55
2022-12-03T03:50:28.562Z,8.13
2022-12-03T03:52:56.472Z,10.10
2022-12-03T03:55:23.630Z,7.80
2022-12-03T03:57:50.513Z,7.82
2022-12-03T04:00:17.925Z,7.22
2022-12-03T04:02:44.993Z,8.27
2022-12-03T04:05:17.671Z,7.20
2022-12-03T04:07:44.581Z,8.05
2022-12-03T04:10:33.944Z,9.50
2022-12-03T04:13:01.614Z,8.63
2022-12-03T04:15:28.564Z,7.72
2022-12-03T04:18:14.333Z,7.68
2022-12-03T04:20:41.066Z,9.85
2022-12-03T04:23:08.104Z,8.02
2022-12-03T04:25:53.487Z,9.05
2022-12-03T04:28:38.714Z,8.55
2022-12-03T04:31:25.729Z,8.32
2022-12-03T04:34:11.520Z,7.97
2022-12-03T04:36:38.713Z,8.20
2022-12-03T04:39:05.805Z,9.23
2022-12-03T04:41:32.530Z,8.32
2022-12-03T04:44:18.197Z,9.95
2022-12-03T04:46:44.954Z,9.70
2022-12-03T04:49:11.673Z,9.90
2022-12-03T04:51:38.420Z,10.07
2022-12-03T04:54:05.252Z,8.82
2022-12-03T04:56:31.993Z,9.98
2022-12-03T04:58:58.751Z,9.35
2022-12-03T05:01:25.519Z,7.97
2022-12-03T05:03:52.240Z,10.10
2022-12-03T05:06:19.014Z,10.65
2022-12-03T05:08:45.856Z,8.13
2022-12-03T05:11:12.566Z,10.52
2022-12-03T05:13:39.329Z,9.70
2022-12-03T05:16:06.608Z,10.77
2022-12-03T05:18:33.344Z,10.45
2022-12-03T05:21:00.082Z,10.95
2022-12-03T05:23:26.894Z,10.93
2022-12-03T05:25:53.809Z,10.27
2022-12-03T05:28:22.300Z,10.32
2022-12-03T05:30:49.171Z,10.35
2022-12-03T05:33:16.158Z,9.55
2022-12-03T05:35:43.471Z,8.88
2022-12-03T05:38:10.285Z,9.20
2022-12-03T05:40:37.120Z,10.32
2022-12-03T05:43:04.018Z,8.88
2022-12-03T05:45:35.690Z,10.52
2022-12-03T05:48:04.390Z,9.18
2022-12-03T05:50:36.329Z,8.38
2022-12-03T05:53:03.631Z,10.07
2022-12-03T05:55:30.447Z,9.70
2022-12-03T05:57:57.645Z,9.65
2022-12-03T06:00:31.630Z,9.15
2022-12-03T06:02:59.317Z,8.02
2022-12-03T06:05:28.248Z,8.73
2022-12-03T06:07:55.116Z,10.65
2022-12-03T06:10:24.943Z,8.35
2022-12-03T06:12:52.295Z,8.75
2022-12-03T06:15:20.306Z,10.65
2022-12-03T06:17:47.364Z,9.73
2022-12-03T06:20:18.955Z,9.02
2022-12-03T06:22:46.373Z,9.23
2022-12-03T06:25:13.875Z,10.82
2022-12-03T06:27:40.742Z,9.00
2022-12-03T06:30:09.056Z,10.30
2022-12-03T06:32:36.162Z,8.20
2022-12-03T06:35:03.482Z,7.50
2022-12-03T06:37:30.206Z,8.43
2022-12-03T06:39:56.938Z,7.43
2022-12-03T06:42:23.674Z,7.32
2022-12-03T06:44:50.443Z,10.48
2022-12-03T06:47:17.248Z,8.02
2022-12-03T06:49:44.070Z,8.75
2022-12-03T06:52:10.777Z,8.07
2022-12-03T06:54:37.482Z,9.75
2022-12-03T06:57:04.305Z,8.30
2022-12-03T06:59:34.187Z,7.22
2022-12-03T07:02:01.282Z,7.63
2022-12-03T07:04:29.224Z,9.48
2022-12-03T07:06:56.024Z,9.00
2022-12-03T07:09:22.824Z,8.13
2022-12-03T07:11:49.557Z,7.47
2022-12-03T07:14:17.340Z,8.73
2022-12-03T07:16:44.225Z,9.00
2022-12-03T07:19:11.354Z,9.43
2022-12-03T07:21:38.349Z,7.80
2022-12-03T07:24:05.760Z,10.73
2022-12-03T07:26:32.985Z,8.00
2022-12-03T07:29:00.146Z,8.05
2022-12-03T07:31:27.311Z,7.78
2022-12-03T07:33:54.245Z,7.85
2022-12-03T07:36:21.023Z,9.98
2022-12-03T07:38:47.859Z,8.32
2022-12-03T07:41:14.734Z,9.63
2022-12-03T07:43:41.452Z,9.65
2022-12-03T07:46:08.629Z,9.88
2022-12-03T07:48:35.451Z,7.60
2022-12-03T07:51:02.343Z,8.18
2022-12-03T07:53:29.192Z,9.20
2022-12-03T07:55:55.990Z,8.98
2022-12-03T07:58:22.761Z,7.28
2022-12-03T08:00:49.559Z,8.88
2022-12-03T08:03:16.331Z,7.55
2022-12-03T08:05:43.061Z,8.88
2022-12-03T08:10:43.728Z,8.27
2022-12-03T08:13:25.589Z,8.25
2022-12-03T08:15:52.939Z,9.18
2022-12-03T08:18:21.668Z,7.97
2022-12-03T08:20:51.898Z,8.98
2022-12-03T08:23:22.418Z,7.82
2022-12-03T08:25:51.543Z,6.70
2022-12-03T08:28:26.749Z,7.10
2022-12-03T08:31:21.050Z,7.00
2022-12-03T08:33:51.249Z,7.60
2022-12-03T08:36:26.282Z,6.97
2022-12-03T08:38:59.828Z,7.03
2022-12-03T08:41:46.433Z,5.88
2022-12-03T08:44:32.631Z,7.63
2022-12-03T08:47:16.962Z,7.50
2022-12-03T08:50:00.323Z,7.78
2022-12-03T08:52:34.873Z,6.95
2022-12-03T08:55:33.178Z,7.15
2022-12-03T08:57:59.996Z,5.82
2022-12-03T09:00:27.026Z,7.82
2022-12-03T09:02:59.949Z,8.57
2022-12-03T09:05:30.396Z,7.82
2022-12-03T09:07:57.229Z,5.28
2022-12-03T09:10:24.051Z,7.10
2022-12-03T09:12:50.850Z,6.85
2022-12-03T09:15:17.755Z,5.28
2022-12-03T09:17:44.562Z,7.30
2022-12-03T09:20:11.946Z,7.72
2022-12-03T09:22:38.660Z,7.78
2022-12-03T09:25:06.130Z,6.72
2022-12-03T09:27:32.910Z,5.60
2022-12-03T09:29:59.671Z,7.97
2022-12-03T09:32:26.465Z,7.90
2022-12-03T09:34:54.183Z,6.93
2022-12-03T09:37:22.291Z,8.55
2022-12-03T09:39:49.154Z,7.60
2022-12-03T09:42:16.211Z,8.13
2022-12-03T09:44:43.158Z,7.65
2022-12-03T09:47:10.111Z,7.38
2022-12-03T09:49:38.545Z,6.35
2022-12-03T09:52:06.680Z,6.95
2022-12-03T09:54:34.546Z,7.07
2022-12-03T09:57:04.378Z,7.25
2022-12-03T09:59:34.341Z,4.65
2022-12-03T10:02:03.044Z,6.40
2022-12-03T10:04:30.370Z,7.22
2022-12-03T10:06:59.178Z,6.72
2022-12-03T10:09:29.008Z,6.18
2022-12-03T10:11:57.750Z,8.43
2022-12-03T10:14:24.925Z,8.40
2022-12-03T10:16:52.075Z,7.43
2022-12-03T10:19:29.717Z,9.00
2022-12-03T10:21:56.464Z,10.75
2022-12-03T10:24:32.476Z,7.68
2022-12-03T10:27:24.592Z,6.50
2022-12-03T10:30:00.160Z,6.18
2022-12-03T10:32:40.795Z,5.68
2022-12-03T10:35:16.789Z,7.15
2022-12-03T10:38:22.449Z,7.25
2022-12-03T10:40:49.832Z,8.00
2022-12-03T10:43:19.498Z,7.60
2022-12-03T10:45:48.352Z,7.28
2022-12-03T10:48:26.354Z,7.22
2022-12-03T10:51:12.054Z,5.55
2022-12-03T10:53:40.640Z,7.68
2022-12-03T10:56:14.869Z,8.98
2022-12-03T10:58:42.348Z,6.43
2022-12-03T11:01:19.210Z,5.07
2022-12-03T11:03:46.741Z,7.43
2022-12-03T11:06:20.591Z,5.82
2022-12-03T11:08:56.822Z,5.72
2022-12-03T11:11:30.638Z,5.43
2022-12-03T11:14:05.036Z,6.20
2022-12-03T11:16:40.672Z,7.10
2022-12-03T11:19:13.473Z,6.72
2022-12-03T11:24:35.037Z,7.25
2022-12-03T11:27:01.745Z,7.07
2022-12-03T11:29:49.208Z,7.93
2022-12-03T11:32:43.290Z,7.15
2022-12-03T11:35:37.975Z,9.10
2022-12-03T11:38:52.348Z,7.03
2022-12-03T11:41:22.743Z,6.97
2022-12-03T11:43:52.126Z,7.22
2022-12-03T11:46:23.188Z,9.13
2022-12-03T11:48:52.907Z,7.68
2022-12-03T11:51:23.839Z,8.25
2022-12-03T11:53:52.943Z,8.00
2022-12-03T11:56:30.444Z,6.95
2022-12-03T11:59:03.245Z,6.47
2022-12-03T12:04:08.358Z,7.97
2022-12-03T12:06:43.774Z,6.43
2022-12-03T12:09:11.046Z,7.32
2022-12-03T12:11:41.492Z,7.22
2022-12-03T12:14:11.459Z,9.07
2022-12-03T12:16:55.339Z,7.13
2022-12-03T12:19:38.264Z,9.00
2022-12-03T12:22:24.266Z,7.85
2022-12-03T12:25:03.079Z,5.93
2022-12-03T12:27:49.468Z,7.20
2022-12-03T12:30:20.329Z,6.22
2022-12-03T12:33:00.856Z,6.88
2022-12-03T12:35:32.651Z,6.72
2022-12-03T12:38:08.837Z,6.47
2022-12-03T12:40:39.547Z,7.88
2022-12-03T12:43:24.386Z,7.90
2022-12-03T12:45:59.445Z,7.32
2022-12-03T12:48:31.781Z,5.78
2022-12-03T12:51:11.448Z,6.72
2022-12-03T12:53:40.465Z,6.53
2022-12-03T12:56:20.657Z,7.32
2022-12-03T12:58:47.478Z,6.78
2022-12-03T13:01:25.270Z,6.88
2022-12-03T13:03:53.446Z,6.20
2022-12-03T13:06:28.225Z,5.00
2022-12-03T13:08:55.737Z,5.43
2022-12-03T13:11:25.440Z,8.75
2022-12-03T13:13:52.734Z,6.22
2022-12-03T13:16:29.386Z,7.13
2022-12-03T13:18:58.791Z,8.40
2022-12-03T13:21:43.112Z,8.43
2022-12-03T13:24:32.740Z,6.18
2022-12-03T13:27:22.786Z,6.75
2022-12-03T13:30:03.688Z,7.25
2022-12-03T13:32:37.451Z,7.25
2022-12-03T13:35:13.734Z,6.10
2022-12-03T13:37:40.503Z,4.72
2022-12-03T13:40:36.473Z,6.28
2022-12-03T13:43:15.894Z,5.50
2022-12-03T13:45:47.345Z,4.65
2022-12-03T13:48:32.019Z,4.82
2022-12-03T13:51:14.319Z,4.82
2022-12-03T13:53:41.276Z,5.38
2022-12-03T13:56:29.709Z,4.95
2022-12-03T13:59:00.281Z,6.25
2022-12-03T14:01:28.103Z,5.10
2022-12-03T14:03:55.376Z,4.97
2022-12-03T14:06:23.701Z,6.22
2022-12-03T14:08:50.550Z,5.63
2022-12-03T14:11:36.180Z,6.55
2022-12-03T14:14:03.253Z,7.03
2022-12-03T14:16:30.027Z,5.80
2022-12-03T14:18:56.771Z,5.72
2022-12-03T14:21:23.578Z,6.85
2022-12-03T14:23:50.305Z,5.88
2022-12-03T14:26:17.072Z,6.38
2022-12-03T14:28:43.812Z,5.50
2022-12-03T14:31:10.524Z,6.43
2022-12-03T14:33:37.322Z,4.32
2022-12-03T14:36:04.302Z,5.65
2022-12-03T14:38:31.119Z,5.65
2022-12-03T14:40:57.849Z,6.05
2022-12-03T14:43:24.599Z,7.15
2022-12-03T14:45:51.726Z,6.80
2022-12-03T14:48:18.597Z,6.90
2022-12-03T14:50:45.366Z,6.65
2022-12-03T14:53:12.102Z,7.28
2022-12-03T14:55:38.816Z,8.20
2022-12-03T14:58:05.523Z,7.03
2022-12-03T15:00:32.259Z,5.85
2022-12-03T15:02:59.038Z,7.18
2022-12-03T15:05:28.835Z,6.03
2022-12-03T15:07:55.748Z,5.28
2022-12-03T15:10:22.588Z,6.60
2022-12-03T15:12:49.358Z,4.65
2022-12-03T15:15:16.237Z,6.43
2022-12-03T15:17:45.766Z,7.05
2022-12-03T15:20:13.284Z,5.28
2022-12-03T15:22:40.081Z,6.10
2022-12-03T15:25:07.858Z,7.45
2022-12-03T15:27:34.634Z,5.40
2022-12-03T15:30:01.358Z,6.57
2022-12-03T15:32:28.182Z,4.95
2022-12-03T15:34:54.908Z,5.57
2022-12-03T15:37:21.642Z,5.68
2022-12-03T15:39:49.566Z,6.53
2022-12-03T15:42:16.377Z,6.28
2022-12-03T15:44:43.130Z,7.97
2022-12-03T15:47:09.872Z,5.63
2022-12-03T15:49:36.674Z,6.50
2022-12-03T15:52:04.640Z,6.07
2022-12-03T15:54:31.413Z,5.63
2022-12-03T15:56:58.125Z,5.78
2022-12-03T15:59:25.601Z,6.22
2022-12-03T16:01:52.379Z,6.40
2022-12-03T16:04:19.135Z,5.57
2022-12-03T16:06:45.928Z,6.47
2022-12-03T16:09:12.674Z,6.82
2022-12-03T16:11:39.378Z,6.03
2022-12-03T16:14:06.162Z,6.28
2022-12-03T16:16:32.948Z,5.82
2022-12-03T16:18:59.785Z,6.63
2022-12-03T16:21:27.393Z,5.80
2022-12-03T16:23:55.578Z,7.00
2022-12-03T16:26:22.863Z,6.70
2022-12-03T16:28:49.652Z,6.93
2022-12-03T16:31:16.487Z,6.95
2022-12-03T16:33:43.304Z,8.35
2022-12-03T16:36:10.209Z,8.18
2022-12-03T16:38:36.976Z,7.20
2022-12-03T16:41:03.880Z,5.60
2022-12-03T16:43:30.777Z,7.50
2022-12-03T16:46:20.400Z,5.97
2022-12-03T16:48:48.335Z,5.43
2022-12-03T16:51:15.863Z,6.43
2022-12-03T16:53:42.882Z,6.90
2022-12-03T16:56:09.603Z,6.68
2022-12-03T16:58:36.521Z,6.05
2022-12-03T17:01:03.722Z,7.38
2022-12-03T17:03:33.822Z,6.45
2022-12-03T17:06:01.371Z,7.65
2022-12-03T17:08:28.520Z,6.80
2022-12-03T17:10:55.335Z,7.43
2022-12-03T17:13:23.359Z,7.03
2022-12-03T17:15:51.061Z,6.97
2022-12-03T17:18:17.853Z,8.10
2022-12-03T17:20:44.597Z,7.35
2022-12-03T17:23:12.013Z,8.38
2022-12-03T17:25:38.773Z,8.85
2022-12-03T17:28:05.662Z,16.90
2022-12-03T17:30:32.437Z,6.80
2022-12-03T17:32:59.159Z,9.25
2022-12-03T17:35:26.870Z,8.38
2022-12-03T17:37:53.561Z,7.75
2022-12-03T17:40:20.588Z,7.53
2022-12-03T17:42:47.357Z,7.97
2022-12-03T17:45:14.258Z,7.63
2022-12-03T17:47:41.280Z,8.95
2022-12-03T17:50:09.168Z,9.25
2022-12-03T17:52:36.054Z,7.60
2022-12-03T17:55:11.708Z,8.32
2022-12-03T17:57:39.914Z,8.40
2022-12-03T18:00:07.704Z,6.32
2022-12-03T18:02:34.496Z,6.57
2022-12-03T18:05:01.227Z,7.43
2022-12-03T18:07:28.247Z,7.60
2022-12-03T18:09:55.378Z,7.68
2022-12-03T18:12:22.364Z,8.60
2022-12-03T18:14:49.114Z,8.23
2022-12-03T18:17:15.941Z,8.48
2022-12-03T18:19:43.127Z,7.47
2022-12-03T18:22:10.005Z,9.90
2022-12-03T18:24:37.517Z,8.23
2022-12-03T18:27:04.407Z,9.23
2022-12-03T18:29:31.190Z,10.35
2022-12-03T18:31:58.031Z,9.32
2022-12-03T18:34:24.938Z,10.68
2022-12-03T18:36:51.744Z,9.70
2022-12-03T18:39:28.309Z,8.68
2022-12-03T18:41:55.089Z,10.52
2022-12-03T18:44:22.054Z,9.80
2022-12-03T18:46:53.806Z,8.10
2022-12-03T18:49:20.999Z,10.60
2022-12-03T18:51:48.551Z,9.77
2022-12-03T18:54:15.894Z,8.07
2022-12-03T18:56:42.680Z,8.90
2022-12-03T18:59:09.825Z,9.82
2022-12-03T19:01:36.616Z,9.40
2022-12-03T19:04:03.627Z,10.45
2022-12-03T19:06:30.676Z,9.05
2022-12-03T19:08:57.779Z,7.55
2022-12-03T19:11:25.108Z,10.82
2022-12-03T19:13:52.163Z,8.90
2022-12-03T19:16:19.266Z,7.30
2022-12-03T19:18:46.279Z,10.43
2022-12-03T19:21:16.026Z,9.15
2022-12-03T19:24:04.133Z,13.80
2022-12-03T19:26:30.535Z,11.55
2022-12-03T19:28:57.482Z,8.25
2022-12-03T19:31:24.286Z,9.73
2022-12-03T19:33:51.919Z,9.50
2022-12-03T19:36:27.326Z,10.55
2022-12-03T19:38:58.553Z,8.48
2022-12-03T19:41:28.214Z,10.35
2022-12-03T19:43:56.568Z,11.02
2022-12-03T19:46:28.932Z,10.82
2022-12-03T19:48:55.811Z,8.90
2022-12-03T19:51:37.732Z,9.27
2022-12-03T19:54:07.452Z,7.88
2022-12-03T19:56:35.001Z,9.70
2022-12-03T19:59:01.836Z,11.95
2022-12-03T20:01:32.735Z,9.43
2022-12-03T20:04:02.221Z,8.50
2022-12-03T20:06:33.854Z,9.27
2022-12-03T20:09:12.169Z,8.80
2022-12-03T20:11:41.447Z,8.88
2022-12-03T20:14:11.506Z,8.77
2022-12-03T20:16:38.342Z,8.95
2022-12-03T20:19:08.060Z,9.15
2022-12-03T20:21:36.704Z,8.60
2022-12-03T20:24:04.471Z,9.55
2022-12-03T20:26:31.904Z,9.93
2022-12-03T20:28:59.270Z,10.95
2022-12-03T20:31:30.113Z,8.10
2022-12-03T20:34:03.778Z,8.75
2022-12-03T20:36:32.121Z,10.10
2022-12-03T20:39:05.687Z,9.63
2022-12-03T20:41:36.029Z,7.88
2022-12-03T20:44:03.442Z,8.73
2022-12-03T20:46:31.826Z,10.70
2022-12-03T20:48:59.597Z,10.02
2022-12-03T20:51:30.564Z,9.20
2022-12-03T20:53:59.345Z,9.50
2022-12-03T20:56:31.474Z,9.95
2022-12-03T20:59:04.993Z,8.32
2022-12-03T21:01:31.888Z,9.48
2022-12-03T21:03:59.191Z,9.77
2022-12-03T21:06:30.032Z,9.02
2022-12-03T21:08:59.322Z,9.18
2022-12-03T21:11:31.872Z,8.98
2022-12-03T21:14:00.220Z,6.97
2022-12-03T21:16:59.144Z,7.78
2022-12-03T21:19:18.354Z,9.10
2022-12-03T21:21:45.191Z,9.43
2022-12-03T21:24:13.616Z,9.43
2022-12-03T21:26:40.945Z,9.25
2022-12-03T21:29:07.885Z,8.15
2022-12-03T21:31:35.752Z,9.75
2022-12-03T21:34:03.225Z,9.48
2022-12-03T21:36:30.015Z,10.13
2022-12-03T21:38:56.803Z,9.32
2022-12-03T21:41:23.535Z,9.50
2022-12-03T21:43:50.309Z,8.57
2022-12-03T21:47:12.278Z,9.77
2022-12-03T21:49:04.264Z,9.60
2022-12-03T21:51:31.074Z,10.75
2022-12-03T21:53:57.848Z,7.78
2022-12-03T21:56:24.836Z,6.45
2022-12-03T21:58:51.564Z,9.90
2022-12-03T22:01:21.976Z,10.30
2022-12-03T22:03:49.294Z,9.10
2022-12-03T22:06:17.092Z,9.30
2022-12-03T22:08:44.254Z,9.07
2022-12-03T22:11:17.804Z,8.35
2022-12-03T22:13:45.807Z,10.30
2022-12-03T22:16:17.174Z,11.02
2022-12-03T22:18:44.641Z,10.27
2022-12-03T22:21:14.832Z,10.23
2022-12-03T22:23:41.740Z,9.70
2022-12-03T22:26:13.160Z,8.63
2022-12-03T22:28:44.467Z,8.88
2022-12-03T22:31:12.008Z,9.32
2022-12-03T22:33:39.548Z,8.25
2022-12-03T22:36:19.729Z,8.55
2022-12-03T22:38:47.981Z,11.05
2022-12-03T22:41:15.080Z,8.25
2022-12-03T22:43:42.111Z,8.93
2022-12-03T22:46:12.769Z,8.15
2022-12-03T22:48:41.960Z,9.45
2022-12-03T22:51:22.290Z,9.10
2022-12-03T22:53:57.933Z,8.52
2022-12-03T22:56:26.104Z,9.73
2022-12-03T22:58:52.845Z,10.25
2022-12-03T23:01:26.884Z,8.70
2022-12-03T23:03:54.200Z,7.95
2022-12-03T23:06:21.759Z,10.00
2022-12-03T23:08:48.986Z,10.90
2022-12-03T23:11:16.594Z,9.10
2022-12-03T23:13:43.507Z,8.02
2022-12-03T23:16:22.519Z,8.65
2022-12-03T23:18:49.628Z,8.38
2022-12-03T23:21:29.059Z,11.77
2022-12-03T23:23:56.752Z,7.82
2022-12-03T23:26:23.516Z,10.05
2022-12-03T23:28:50.295Z,7.82
2022-12-03T23:31:25.201Z,8.13
2022-12-03T23:33:52.793Z,7.70
2022-12-03T23:36:20.130Z,7.75
2022-12-03T23:38:47.213Z,7.60
2022-12-03T23:41:18.933Z,10.90
2022-12-03T23:43:45.872Z,9.63
2022-12-03T23:46:19.150Z,7.90
2022-12-03T23:48:46.202Z,7.50
2022-12-03T23:51:19.878Z,7.50
2022-12-03T23:53:47.212Z,9.38
2022-12-03T23:56:19.969Z,7.18
